sensor_id;sensor_type;location;lat;lon;timestamp;P1;durP1;ratioP1;P2;durP2;ratioP2
7737;SDS011;29398;45.328;5.558;2024-02-21T00:00:11;15.73;;;8.52;;
7737;SDS011;29398;45.328;5.558;2024-02-21T00:01:14;14.45;;;8.38;;
7737;SDS011;29398;45.328;5.558;2024-02-21T00:02:17;13.40;;;7.85;;
7737;SDS011;29398;45.328;5.558;2024-02-21T00:03:18;14.23;;;8.18;;
7737;SDS011;29398;45.328;5.558;2024-02-21T00:04:20;13.68;;;7.60;;
7737;SDS011;29398;45.328;5.558;2024-02-21T00:05:22;14.73;;;8.20;;
7737;SDS011;29398;45.328;5.558;2024-02-21T00:06:24;13.57;;;7.82;;
7737;SDS011;29398;45.328;5.558;2024-02-21T00:07:26;13.00;;;7.15;;
7737;SDS011;29398;45.328;5.558;2024-02-21T00:08:28;14.18;;;7.50;;
7737;SDS011;29398;45.328;5.558;2024-02-21T00:09:29;10.00;;;6.97;;
7737;SDS011;29398;45.328;5.558;2024-02-21T00:10:31;12.57;;;7.93;;
7737;SDS011;29398;45.328;5.558;2024-02-21T00:11:33;15.43;;;7.70;;
7737;SDS011;29398;45.328;5.558;2024-02-21T00:12:35;16.05;;;7.53;;
7737;SDS011;29398;45.328;5.558;2024-02-21T00:13:36;13.43;;;7.90;;
7737;SDS011;29398;45.328;5.558;2024-02-21T00:14:37;14.45;;;7.90;;
7737;SDS011;29398;45.328;5.558;2024-02-21T00:15:40;10.70;;;7.28;;
7737;SDS011;29398;45.328;5.558;2024-02-21T00:16:41;12.88;;;7.40;;
7737;SDS011;29398;45.328;5.558;2024-02-21T00:17:43;13.90;;;7.60;;
7737;SDS011;29398;45.328;5.558;2024-02-21T00:18:44;15.57;;;8.27;;
7737;SDS011;29398;45.328;5.558;2024-02-21T00:19:46;15.68;;;7.85;;
7737;SDS011;29398;45.328;5.558;2024-02-21T00:20:47;13.13;;;7.50;;
7737;SDS011;29398;45.328;5.558;2024-02-21T00:21:49;14.35;;;7.82;;
7737;SDS011;29398;45.328;5.558;2024-02-21T00:22:50;10.40;;;7.20;;
7737;SDS011;29398;45.328;5.558;2024-02-21T00:23:52;9.75;;;7.15;;
7737;SDS011;29398;45.328;5.558;2024-02-21T00:24:53;13.00;;;7.20;;
7737;SDS011;29398;45.328;5.558;2024-02-21T00:25:55;13.75;;;7.65;;
7737;SDS011;29398;45.328;5.558;2024-02-21T00:26:58;13.93;;;7.47;;
7737;SDS011;29398;45.328;5.558;2024-02-21T00:27:59;16.00;;;7.57;;
7737;SDS011;29398;45.328;5.558;2024-02-21T00:29:01;14.70;;;7.45;;
7737;SDS011;29398;45.328;5.558;2024-02-21T00:30:02;12.00;;;7.20;;
7737;SDS011;29398;45.328;5.558;2024-02-21T00:31:05;12.20;;;6.78;;
7737;SDS011;29398;45.328;5.558;2024-02-21T00:32:06;14.20;;;7.00;;
7737;SDS011;29398;45.328;5.558;2024-02-21T00:33:08;11.45;;;6.43;;
7737;SDS011;29398;45.328;5.558;2024-02-21T00:34:09;11.32;;;6.82;;
7737;SDS011;29398;45.328;5.558;2024-02-21T00:35:11;12.63;;;6.57;;
7737;SDS011;29398;45.328;5.558;2024-02-21T00:36:13;14.40;;;6.65;;
7737;SDS011;29398;45.328;5.558;2024-02-21T00:37:15;12.27;;;6.70;;
7737;SDS011;29398;45.328;5.558;2024-02-21T00:38:17;12.88;;;6.63;;
7737;SDS011;29398;45.328;5.558;2024-02-21T00:39:18;10.63;;;6.10;;
7737;SDS011;29398;45.328;5.558;2024-02-21T00:40:20;12.60;;;6.43;;
7737;SDS011;29398;45.328;5.558;2024-02-21T00:41:22;11.77;;;6.40;;
7737;SDS011;29398;45.328;5.558;2024-02-21T00:42:25;13.68;;;6.85;;
7737;SDS011;29398;45.328;5.558;2024-02-21T00:43:26;10.32;;;6.30;;
7737;SDS011;29398;45.328;5.558;2024-02-21T00:44:28;11.82;;;6.07;;
7737;SDS011;29398;45.328;5.558;2024-02-21T00:45:29;13.82;;;6.65;;
7737;SDS011;29398;45.328;5.558;2024-02-21T00:46:30;13.32;;;6.88;;
7737;SDS011;29398;45.328;5.558;2024-02-21T00:47:32;12.35;;;6.10;;
7737;SDS011;29398;45.328;5.558;2024-02-21T00:48:34;11.75;;;6.60;;
7737;SDS011;29398;45.328;5.558;2024-02-21T00:49:35;11.45;;;5.93;;
7737;SDS011;29398;45.328;5.558;2024-02-21T00:50:36;12.63;;;5.30;;
7737;SDS011;29398;45.328;5.558;2024-02-21T00:51:39;12.68;;;6.13;;
7737;SDS011;29398;45.328;5.558;2024-02-21T00:52:39;9.93;;;5.45;;
7737;SDS011;29398;45.328;5.558;2024-02-21T00:53:41;10.27;;;5.80;;
7737;SDS011;29398;45.328;5.558;2024-02-21T00:54:43;10.70;;;5.72;;
7737;SDS011;29398;45.328;5.558;2024-02-21T00:55:44;14.25;;;5.70;;
7737;SDS011;29398;45.328;5.558;2024-02-21T00:56:46;11.30;;;5.85;;
7737;SDS011;29398;45.328;5.558;2024-02-21T00:57:48;12.77;;;5.60;;
7737;SDS011;29398;45.328;5.558;2024-02-21T00:58:51;10.23;;;6.10;;
7737;SDS011;29398;45.328;5.558;2024-02-21T00:59:52;8.55;;;5.55;;
7737;SDS011;29398;45.328;5.558;2024-02-21T01:00:53;12.85;;;5.40;;
7737;SDS011;29398;45.328;5.558;2024-02-21T01:01:55;9.07;;;5.38;;
7737;SDS011;29398;45.328;5.558;2024-02-21T01:02:56;11.98;;;5.70;;
7737;SDS011;29398;45.328;5.558;2024-02-21T01:03:58;10.82;;;5.70;;
7737;SDS011;29398;45.328;5.558;2024-02-21T01:04:59;14.70;;;5.97;;
7737;SDS011;29398;45.328;5.558;2024-02-21T01:06:00;9.52;;;5.68;;
7737;SDS011;29398;45.328;5.558;2024-02-21T01:07:02;11.85;;;5.47;;
7737;SDS011;29398;45.328;5.558;2024-02-21T01:08:03;9.50;;;5.25;;
7737;SDS011;29398;45.328;5.558;2024-02-21T01:09:06;10.82;;;5.13;;
7737;SDS011;29398;45.328;5.558;2024-02-21T01:10:08;11.20;;;5.55;;
7737;SDS011;29398;45.328;5.558;2024-02-21T01:11:10;8.93;;;5.05;;
7737;SDS011;29398;45.328;5.558;2024-02-21T01:12:11;11.35;;;5.88;;
7737;SDS011;29398;45.328;5.558;2024-02-21T01:13:15;8.18;;;4.68;;
7737;SDS011;29398;45.328;5.558;2024-02-21T01:14:16;9.38;;;5.80;;
7737;SDS011;29398;45.328;5.558;2024-02-21T01:15:18;12.10;;;5.70;;
7737;SDS011;29398;45.328;5.558;2024-02-21T01:16:19;10.60;;;5.93;;
7737;SDS011;29398;45.328;5.558;2024-02-21T01:17:21;9.57;;;5.13;;
7737;SDS011;29398;45.328;5.558;2024-02-21T01:18:22;12.82;;;5.70;;
7737;SDS011;29398;45.328;5.558;2024-02-21T01:19:24;11.35;;;5.70;;
7737;SDS011;29398;45.328;5.558;2024-02-21T01:20:25;8.88;;;5.78;;
7737;SDS011;29398;45.328;5.558;2024-02-21T01:21:27;11.07;;;6.65;;
7737;SDS011;29398;45.328;5.558;2024-02-21T01:22:28;11.52;;;6.20;;
7737;SDS011;29398;45.328;5.558;2024-02-21T01:23:29;12.77;;;6.18;;
7737;SDS011;29398;45.328;5.558;2024-02-21T01:24:31;10.05;;;5.40;;
7737;SDS011;29398;45.328;5.558;2024-02-21T01:25:32;9.57;;;5.78;;
7737;SDS011;29398;45.328;5.558;2024-02-21T01:26:34;9.27;;;5.22;;
7737;SDS011;29398;45.328;5.558;2024-02-21T01:27:35;9.18;;;5.57;;
7737;SDS011;29398;45.328;5.558;2024-02-21T01:28:39;9.63;;;5.32;;
7737;SDS011;29398;45.328;5.558;2024-02-21T01:29:40;10.90;;;5.38;;
7737;SDS011;29398;45.328;5.558;2024-02-21T01:30:42;9.43;;;5.57;;
7737;SDS011;29398;45.328;5.558;2024-02-21T01:31:43;11.02;;;5.60;;
7737;SDS011;29398;45.328;5.558;2024-02-21T01:32:45;8.82;;;5.38;;
7737;SDS011;29398;45.328;5.558;2024-02-21T01:33:46;7.28;;;5.07;;
7737;SDS011;29398;45.328;5.558;2024-02-21T01:34:48;9.65;;;5.20;;
7737;SDS011;29398;45.328;5.558;2024-02-21T01:35:49;8.98;;;4.93;;
7737;SDS011;29398;45.328;5.558;2024-02-21T01:36:51;7.20;;;4.45;;
7737;SDS011;29398;45.328;5.558;2024-02-21T01:37:52;9.98;;;5.10;;
7737;SDS011;29398;45.328;5.558;2024-02-21T01:38:54;8.02;;;5.20;;
7737;SDS011;29398;45.328;5.558;2024-02-21T01:39:55;8.40;;;5.30;;
7737;SDS011;29398;45.328;5.558;2024-02-21T01:40:56;6.95;;;4.88;;
7737;SDS011;29398;45.328;5.558;2024-02-21T01:41:58;10.40;;;5.85;;
7737;SDS011;29398;45.328;5.558;2024-02-21T01:43:00;10.13;;;5.18;;
7737;SDS011;29398;45.328;5.558;2024-02-21T01:44:03;9.73;;;5.63;;
7737;SDS011;29398;45.328;5.558;2024-02-21T01:45:04;10.02;;;5.30;;
7737;SDS011;29398;45.328;5.558;2024-02-21T01:46:07;10.23;;;5.68;;
7737;SDS011;29398;45.328;5.558;2024-02-21T01:47:08;7.70;;;4.93;;
7737;SDS011;29398;45.328;5.558;2024-02-21T01:48:10;6.50;;;4.43;;
7737;SDS011;29398;45.328;5.558;2024-02-21T01:49:11;8.93;;;5.07;;
7737;SDS011;29398;45.328;5.558;2024-02-21T01:50:13;8.10;;;4.43;;
7737;SDS011;29398;45.328;5.558;2024-02-21T01:51:16;7.68;;;4.55;;
7737;SDS011;29398;45.328;5.558;2024-02-21T01:52:19;8.00;;;4.32;;
7737;SDS011;29398;45.328;5.558;2024-02-21T01:53:21;8.10;;;4.30;;
7737;SDS011;29398;45.328;5.558;2024-02-21T01:54:26;8.70;;;5.70;;
7737;SDS011;29398;45.328;5.558;2024-02-21T01:55:28;11.32;;;5.43;;
7737;SDS011;29398;45.328;5.558;2024-02-21T01:56:30;9.15;;;4.85;;
7737;SDS011;29398;45.328;5.558;2024-02-21T01:57:32;7.50;;;4.82;;
7737;SDS011;29398;45.328;5.558;2024-02-21T01:58:35;9.30;;;4.95;;
7737;SDS011;29398;45.328;5.558;2024-02-21T01:59:39;8.30;;;5.03;;
7737;SDS011;29398;45.328;5.558;2024-02-21T02:00:41;9.30;;;5.00;;
7737;SDS011;29398;45.328;5.558;2024-02-21T02:01:43;7.13;;;5.10;;
7737;SDS011;29398;45.328;5.558;2024-02-21T02:02:47;5.53;;;3.88;;
7737;SDS011;29398;45.328;5.558;2024-02-21T02:03:48;6.88;;;4.25;;
7737;SDS011;29398;45.328;5.558;2024-02-21T02:04:50;8.13;;;4.65;;
7737;SDS011;29398;45.328;5.558;2024-02-21T02:05:52;5.95;;;4.10;;
7737;SDS011;29398;45.328;5.558;2024-02-21T02:06:55;9.57;;;4.57;;
7737;SDS011;29398;45.328;5.558;2024-02-21T02:07:56;8.02;;;4.97;;
7737;SDS011;29398;45.328;5.558;2024-02-21T02:08:58;7.00;;;4.57;;
7737;SDS011;29398;45.328;5.558;2024-02-21T02:09:59;8.23;;;4.43;;
7737;SDS011;29398;45.328;5.558;2024-02-21T02:11:01;7.78;;;4.35;;
7737;SDS011;29398;45.328;5.558;2024-02-21T02:12:03;6.93;;;4.78;;
7737;SDS011;29398;45.328;5.558;2024-02-21T02:13:06;7.38;;;4.43;;
7737;SDS011;29398;45.328;5.558;2024-02-21T02:14:07;6.50;;;4.35;;
7737;SDS011;29398;45.328;5.558;2024-02-21T02:15:10;7.43;;;4.53;;
7737;SDS011;29398;45.328;5.558;2024-02-21T02:16:12;6.95;;;4.28;;
7737;SDS011;29398;45.328;5.558;2024-02-21T02:17:13;6.30;;;4.40;;
7737;SDS011;29398;45.328;5.558;2024-02-21T02:18:17;6.97;;;4.40;;
7737;SDS011;29398;45.328;5.558;2024-02-21T02:19:19;4.93;;;3.85;;
7737;SDS011;29398;45.328;5.558;2024-02-21T02:20:21;7.72;;;4.80;;
7737;SDS011;29398;45.328;5.558;2024-02-21T02:21:23;8.45;;;4.10;;
7737;SDS011;29398;45.328;5.558;2024-02-21T02:22:31;5.40;;;4.07;;
7737;SDS011;29398;45.328;5.558;2024-02-21T02:23:35;8.63;;;4.78;;
7737;SDS011;29398;45.328;5.558;2024-02-21T02:24:37;7.28;;;4.50;;
7737;SDS011;29398;45.328;5.558;2024-02-21T02:25:38;8.65;;;4.82;;
7737;SDS011;29398;45.328;5.558;2024-02-21T02:26:39;7.25;;;4.22;;
7737;SDS011;29398;45.328;5.558;2024-02-21T02:27:42;7.65;;;4.43;;
7737;SDS011;29398;45.328;5.558;2024-02-21T02:28:44;8.10;;;4.53;;
7737;SDS011;29398;45.328;5.558;2024-02-21T02:29:46;7.45;;;4.20;;
7737;SDS011;29398;45.328;5.558;2024-02-21T02:30:47;7.35;;;4.22;;
7737;SDS011;29398;45.328;5.558;2024-02-21T02:31:49;6.95;;;4.78;;
7737;SDS011;29398;45.328;5.558;2024-02-21T02:32:51;10.38;;;5.05;;
7737;SDS011;29398;45.328;5.558;2024-02-21T02:33:52;8.95;;;4.70;;
7737;SDS011;29398;45.328;5.558;2024-02-21T02:34:54;8.07;;;4.50;;
7737;SDS011;29398;45.328;5.558;2024-02-21T02:35:56;8.60;;;4.47;;
7737;SDS011;29398;45.328;5.558;2024-02-21T02:36:59;6.82;;;4.50;;
7737;SDS011;29398;45.328;5.558;2024-02-21T02:38:00;7.43;;;4.63;;
7737;SDS011;29398;45.328;5.558;2024-02-21T02:39:03;6.75;;;4.30;;
7737;SDS011;29398;45.328;5.558;2024-02-21T02:40:05;10.23;;;4.40;;
7737;SDS011;29398;45.328;5.558;2024-02-21T02:41:08;6.55;;;4.80;;
7737;SDS011;29398;45.328;5.558;2024-02-21T02:42:08;8.27;;;4.60;;
7737;SDS011;29398;45.328;5.558;2024-02-21T02:43:11;8.05;;;4.50;;
7737;SDS011;29398;45.328;5.558;2024-02-21T02:44:12;8.05;;;4.45;;
7737;SDS011;29398;45.328;5.558;2024-02-21T02:45:14;8.05;;;4.20;;
7737;SDS011;29398;45.328;5.558;2024-02-21T02:46:15;6.85;;;4.65;;
7737;SDS011;29398;45.328;5.558;2024-02-21T02:47:17;8.20;;;4.35;;
7737;SDS011;29398;45.328;5.558;2024-02-21T02:48:18;6.95;;;4.47;;
7737;SDS011;29398;45.328;5.558;2024-02-21T02:49:21;7.68;;;4.30;;
7737;SDS011;29398;45.328;5.558;2024-02-21T02:50:22;7.25;;;4.53;;
7737;SDS011;29398;45.328;5.558;2024-02-21T02:51:24;6.82;;;4.05;;
7737;SDS011;29398;45.328;5.558;2024-02-21T02:52:25;6.70;;;4.32;;
7737;SDS011;29398;45.328;5.558;2024-02-21T02:53:27;5.90;;;3.78;;
7737;SDS011;29398;45.328;5.558;2024-02-21T02:54:30;9.18;;;4.40;;
7737;SDS011;29398;45.328;5.558;2024-02-21T02:55:32;7.45;;;4.28;;
7737;SDS011;29398;45.328;5.558;2024-02-21T02:56:33;6.78;;;4.40;;
7737;SDS011;29398;45.328;5.558;2024-02-21T02:57:35;6.00;;;3.72;;
7737;SDS011;29398;45.328;5.558;2024-02-21T02:58:36;6.50;;;3.80;;
7737;SDS011;29398;45.328;5.558;2024-02-21T02:59:38;7.28;;;4.28;;
7737;SDS011;29398;45.328;5.558;2024-02-21T03:00:39;7.50;;;4.25;;
7737;SDS011;29398;45.328;5.558;2024-02-21T03:01:41;7.95;;;4.20;;
7737;SDS011;29398;45.328;5.558;2024-02-21T03:02:43;5.15;;;4.03;;
7737;SDS011;29398;45.328;5.558;2024-02-21T03:03:46;6.25;;;3.95;;
7737;SDS011;29398;45.328;5.558;2024-02-21T03:04:47;5.75;;;3.67;;
7737;SDS011;29398;45.328;5.558;2024-02-21T03:05:49;7.07;;;4.07;;
7737;SDS011;29398;45.328;5.558;2024-02-21T03:06:51;6.30;;;4.10;;
7737;SDS011;29398;45.328;5.558;2024-02-21T03:07:52;8.60;;;4.13;;
7737;SDS011;29398;45.328;5.558;2024-02-21T03:08:53;5.47;;;4.10;;
7737;SDS011;29398;45.328;5.558;2024-02-21T03:09:57;5.93;;;4.13;;
7737;SDS011;29398;45.328;5.558;2024-02-21T03:10:58;7.25;;;3.75;;
7737;SDS011;29398;45.328;5.558;2024-02-21T03:12:00;6.95;;;3.92;;
7737;SDS011;29398;45.328;5.558;2024-02-21T03:13:03;5.75;;;4.15;;
7737;SDS011;29398;45.328;5.558;2024-02-21T03:14:05;6.10;;;4.20;;
7737;SDS011;29398;45.328;5.558;2024-02-21T03:15:06;5.53;;;4.10;;
7737;SDS011;29398;45.328;5.558;2024-02-21T03:16:08;5.05;;;4.05;;
7737;SDS011;29398;45.328;5.558;2024-02-21T03:17:09;6.72;;;3.70;;
7737;SDS011;29398;45.328;5.558;2024-02-21T03:18:11;6.68;;;3.78;;
7737;SDS011;29398;45.328;5.558;2024-02-21T03:19:12;9.75;;;4.15;;
7737;SDS011;29398;45.328;5.558;2024-02-21T03:20:14;7.13;;;4.10;;
7737;SDS011;29398;45.328;5.558;2024-02-21T03:21:16;6.60;;;4.25;;
7737;SDS011;29398;45.328;5.558;2024-02-21T03:22:18;5.65;;;4.30;;
7737;SDS011;29398;45.328;5.558;2024-02-21T03:23:19;7.57;;;4.30;;
7737;SDS011;29398;45.328;5.558;2024-02-21T03:24:21;6.93;;;4.43;;
7737;SDS011;29398;45.328;5.558;2024-02-21T03:25:23;6.93;;;4.57;;
7737;SDS011;29398;45.328;5.558;2024-02-21T03:26:26;7.63;;;4.88;;
7737;SDS011;29398;45.328;5.558;2024-02-21T03:27:27;8.40;;;5.10;;
7737;SDS011;29398;45.328;5.558;2024-02-21T03:28:29;8.02;;;4.85;;
7737;SDS011;29398;45.328;5.558;2024-02-21T03:29:30;9.63;;;5.95;;
7737;SDS011;29398;45.328;5.558;2024-02-21T03:30:31;10.23;;;6.18;;
7737;SDS011;29398;45.328;5.558;2024-02-21T03:31:34;10.38;;;6.78;;
7737;SDS011;29398;45.328;5.558;2024-02-21T03:32:35;10.65;;;6.68;;
7737;SDS011;29398;45.328;5.558;2024-02-21T03:33:39;12.45;;;7.22;;
7737;SDS011;29398;45.328;5.558;2024-02-21T03:34:40;12.15;;;6.30;;
7737;SDS011;29398;45.328;5.558;2024-02-21T03:35:42;10.38;;;6.85;;
7737;SDS011;29398;45.328;5.558;2024-02-21T03:36:43;10.02;;;6.82;;
7737;SDS011;29398;45.328;5.558;2024-02-21T03:37:45;13.63;;;7.35;;
7737;SDS011;29398;45.328;5.558;2024-02-21T03:38:46;11.75;;;7.53;;
7737;SDS011;29398;45.328;5.558;2024-02-21T03:39:48;9.70;;;6.70;;
7737;SDS011;29398;45.328;5.558;2024-02-21T03:40:51;13.30;;;7.50;;
7737;SDS011;29398;45.328;5.558;2024-02-21T03:41:52;11.27;;;7.70;;
7737;SDS011;29398;45.328;5.558;2024-02-21T03:42:54;12.02;;;8.05;;
7737;SDS011;29398;45.328;5.558;2024-02-21T03:43:55;13.05;;;7.60;;
7737;SDS011;29398;45.328;5.558;2024-02-21T03:44:57;13.43;;;7.43;;
7737;SDS011;29398;45.328;5.558;2024-02-21T03:45:58;10.77;;;7.60;;
7737;SDS011;29398;45.328;5.558;2024-02-21T03:47:01;11.05;;;7.03;;
7737;SDS011;29398;45.328;5.558;2024-02-21T03:48:03;13.75;;;8.00;;
7737;SDS011;29398;45.328;5.558;2024-02-21T03:49:05;13.43;;;8.13;;
7737;SDS011;29398;45.328;5.558;2024-02-21T03:50:07;10.73;;;7.60;;
7737;SDS011;29398;45.328;5.558;2024-02-21T03:51:09;14.48;;;7.80;;
7737;SDS011;29398;45.328;5.558;2024-02-21T03:52:10;14.48;;;7.43;;
7737;SDS011;29398;45.328;5.558;2024-02-21T03:53:12;13.32;;;7.40;;
7737;SDS011;29398;45.328;5.558;2024-02-21T03:54:14;12.15;;;7.38;;
7737;SDS011;29398;45.328;5.558;2024-02-21T03:55:16;12.40;;;7.00;;
7737;SDS011;29398;45.328;5.558;2024-02-21T03:56:18;11.68;;;7.10;;
7737;SDS011;29398;45.328;5.558;2024-02-21T03:57:20;13.13;;;6.53;;
7737;SDS011;29398;45.328;5.558;2024-02-21T03:58:21;10.90;;;6.90;;
7737;SDS011;29398;45.328;5.558;2024-02-21T03:59:22;11.45;;;7.10;;
7737;SDS011;29398;45.328;5.558;2024-02-21T04:00:24;9.70;;;6.53;;
7737;SDS011;29398;45.328;5.558;2024-02-21T04:01:25;12.48;;;7.72;;
7737;SDS011;29398;45.328;5.558;2024-02-21T04:02:27;12.57;;;6.97;;
7737;SDS011;29398;45.328;5.558;2024-02-21T04:03:28;10.35;;;7.32;;
7737;SDS011;29398;45.328;5.558;2024-02-21T04:04:32;12.15;;;7.88;;
7737;SDS011;29398;45.328;5.558;2024-02-21T04:05:33;10.13;;;7.07;;
7737;SDS011;29398;45.328;5.558;2024-02-21T04:06:35;14.75;;;8.35;;
7737;SDS011;29398;45.328;5.558;2024-02-21T04:07:36;14.45;;;8.20;;
7737;SDS011;29398;45.328;5.558;2024-02-21T04:08:38;11.30;;;7.43;;
7737;SDS011;29398;45.328;5.558;2024-02-21T04:09:39;12.25;;;7.50;;
7737;SDS011;29398;45.328;5.558;2024-02-21T04:10:42;12.48;;;7.15;;
7737;SDS011;29398;45.328;5.558;2024-02-21T04:11:44;15.75;;;7.70;;
7737;SDS011;29398;45.328;5.558;2024-02-21T04:12:46;21.83;;;8.18;;
7737;SDS011;29398;45.328;5.558;2024-02-21T04:13:50;20.23;;;8.05;;
7737;SDS011;29398;45.328;5.558;2024-02-21T04:14:52;17.48;;;7.65;;
7737;SDS011;29398;45.328;5.558;2024-02-21T04:15:53;20.27;;;8.10;;
7737;SDS011;29398;45.328;5.558;2024-02-21T04:16:54;18.88;;;7.78;;
7737;SDS011;29398;45.328;5.558;2024-02-21T04:17:56;14.90;;;8.27;;
7737;SDS011;29398;45.328;5.558;2024-02-21T04:18:57;11.70;;;8.05;;
7737;SDS011;29398;45.328;5.558;2024-02-21T04:20:01;12.95;;;7.82;;
7737;SDS011;29398;45.328;5.558;2024-02-21T04:21:05;12.00;;;8.32;;
7737;SDS011;29398;45.328;5.558;2024-02-21T04:22:07;12.00;;;7.82;;
7737;SDS011;29398;45.328;5.558;2024-02-21T04:23:08;13.27;;;8.15;;
7737;SDS011;29398;45.328;5.558;2024-02-21T04:24:10;12.10;;;7.80;;
7737;SDS011;29398;45.328;5.558;2024-02-21T04:25:11;10.65;;;7.50;;
7737;SDS011;29398;45.328;5.558;2024-02-21T04:26:14;13.50;;;8.35;;
7737;SDS011;29398;45.328;5.558;2024-02-21T04:27:16;18.17;;;8.45;;
7737;SDS011;29398;45.328;5.558;2024-02-21T04:28:18;13.20;;;7.88;;
7737;SDS011;29398;45.328;5.558;2024-02-21T04:29:19;13.02;;;8.70;;
7737;SDS011;29398;45.328;5.558;2024-02-21T04:30:21;10.50;;;7.53;;
7737;SDS011;29398;45.328;5.558;2024-02-21T04:31:22;15.77;;;8.40;;
7737;SDS011;29398;45.328;5.558;2024-02-21T04:32:24;13.02;;;7.55;;
7737;SDS011;29398;45.328;5.558;2024-02-21T04:33:27;11.80;;;7.72;;
7737;SDS011;29398;45.328;5.558;2024-02-21T04:34:29;14.70;;;8.63;;
7737;SDS011;29398;45.328;5.558;2024-02-21T04:35:30;12.18;;;7.63;;
7737;SDS011;29398;45.328;5.558;2024-02-21T04:36:32;12.85;;;8.35;;
7737;SDS011;29398;45.328;5.558;2024-02-21T04:37:34;14.35;;;8.40;;
7737;SDS011;29398;45.328;5.558;2024-02-21T04:38:35;11.15;;;7.47;;
7737;SDS011;29398;45.328;5.558;2024-02-21T04:39:39;11.65;;;8.02;;
7737;SDS011;29398;45.328;5.558;2024-02-21T04:40:41;11.27;;;7.80;;
7737;SDS011;29398;45.328;5.558;2024-02-21T04:41:43;12.45;;;8.35;;
7737;SDS011;29398;45.328;5.558;2024-02-21T04:42:45;12.82;;;7.97;;
7737;SDS011;29398;45.328;5.558;2024-02-21T04:43:48;12.23;;;7.35;;
7737;SDS011;29398;45.328;5.558;2024-02-21T04:44:49;11.98;;;7.57;;
7737;SDS011;29398;45.328;5.558;2024-02-21T04:45:50;13.85;;;8.15;;
7737;SDS011;29398;45.328;5.558;2024-02-21T04:46:53;13.65;;;7.53;;
7737;SDS011;29398;45.328;5.558;2024-02-21T04:47:57;14.57;;;8.10;;
7737;SDS011;29398;45.328;5.558;2024-02-21T04:48:59;16.33;;;8.48;;
7737;SDS011;29398;45.328;5.558;2024-02-21T04:50:00;12.50;;;8.10;;
7737;SDS011;29398;45.328;5.558;2024-02-21T04:51:03;12.93;;;8.18;;
7737;SDS011;29398;45.328;5.558;2024-02-21T04:52:04;11.18;;;7.78;;
7737;SDS011;29398;45.328;5.558;2024-02-21T04:53:06;13.45;;;8.07;;
7737;SDS011;29398;45.328;5.558;2024-02-21T04:54:08;11.43;;;8.05;;
7737;SDS011;29398;45.328;5.558;2024-02-21T04:55:09;13.50;;;8.07;;
7737;SDS011;29398;45.328;5.558;2024-02-21T04:56:11;18.05;;;7.60;;
7737;SDS011;29398;45.328;5.558;2024-02-21T04:57:12;12.05;;;7.32;;
7737;SDS011;29398;45.328;5.558;2024-02-21T04:58:18;9.90;;;6.78;;
7737;SDS011;29398;45.328;5.558;2024-02-21T04:59:20;8.82;;;6.25;;
7737;SDS011;29398;45.328;5.558;2024-02-21T05:00:21;10.02;;;6.82;;
7737;SDS011;29398;45.328;5.558;2024-02-21T05:01:23;9.40;;;6.35;;
7737;SDS011;29398;45.328;5.558;2024-02-21T05:02:24;10.70;;;5.88;;
7737;SDS011;29398;45.328;5.558;2024-02-21T05:03:26;9.98;;;5.70;;
7737;SDS011;29398;45.328;5.558;2024-02-21T05:04:28;8.20;;;5.55;;
7737;SDS011;29398;45.328;5.558;2024-02-21T05:05:29;7.43;;;5.57;;
7737;SDS011;29398;45.328;5.558;2024-02-21T05:06:31;6.35;;;4.80;;
7737;SDS011;29398;45.328;5.558;2024-02-21T05:07:32;7.95;;;5.20;;
7737;SDS011;29398;45.328;5.558;2024-02-21T05:08:36;7.68;;;5.28;;
7737;SDS011;29398;45.328;5.558;2024-02-21T05:09:37;7.53;;;5.05;;
7737;SDS011;29398;45.328;5.558;2024-02-21T05:10:39;7.15;;;4.95;;
7737;SDS011;29398;45.328;5.558;2024-02-21T05:11:40;8.52;;;5.10;;
7737;SDS011;29398;45.328;5.558;2024-02-21T05:12:42;10.05;;;5.00;;
7737;SDS011;29398;45.328;5.558;2024-02-21T05:13:45;9.75;;;5.18;;
7737;SDS011;29398;45.328;5.558;2024-02-21T05:14:47;6.80;;;4.82;;
7737;SDS011;29398;45.328;5.558;2024-02-21T05:15:48;10.18;;;5.00;;
7737;SDS011;29398;45.328;5.558;2024-02-21T05:16:50;11.93;;;5.07;;
7737;SDS011;29398;45.328;5.558;2024-02-21T05:17:51;7.85;;;5.10;;
7737;SDS011;29398;45.328;5.558;2024-02-21T05:18:53;8.90;;;5.03;;
7737;SDS011;29398;45.328;5.558;2024-02-21T05:19:54;8.02;;;5.13;;
7737;SDS011;29398;45.328;5.558;2024-02-21T05:20:56;8.60;;;5.78;;
7737;SDS011;29398;45.328;5.558;2024-02-21T05:21:58;7.65;;;4.88;;
7737;SDS011;29398;45.328;5.558;2024-02-21T05:23:01;10.25;;;5.05;;
7737;SDS011;29398;45.328;5.558;2024-02-21T05:24:02;8.50;;;4.90;;
7737;SDS011;29398;45.328;5.558;2024-02-21T05:25:04;9.32;;;5.03;;
7737;SDS011;29398;45.328;5.558;2024-02-21T05:26:06;7.47;;;4.60;;
7737;SDS011;29398;45.328;5.558;2024-02-21T05:27:08;9.30;;;4.82;;
7737;SDS011;29398;45.328;5.558;2024-02-21T05:28:10;9.93;;;5.10;;
7737;SDS011;29398;45.328;5.558;2024-02-21T05:29:12;9.35;;;5.65;;
7737;SDS011;29398;45.328;5.558;2024-02-21T05:30:14;8.75;;;4.90;;
7737;SDS011;29398;45.328;5.558;2024-02-21T05:31:15;8.02;;;5.00;;
7737;SDS011;29398;45.328;5.558;2024-02-21T05:32:18;7.70;;;4.68;;
7737;SDS011;29398;45.328;5.558;2024-02-21T05:33:19;8.57;;;4.78;;
7737;SDS011;29398;45.328;5.558;2024-02-21T05:34:22;8.43;;;4.50;;
7737;SDS011;29398;45.328;5.558;2024-02-21T05:35:25;5.82;;;4.70;;
7737;SDS011;29398;45.328;5.558;2024-02-21T05:36:28;9.07;;;5.43;;
7737;SDS011;29398;45.328;5.558;2024-02-21T05:37:29;8.52;;;5.15;;
7737;SDS011;29398;45.328;5.558;2024-02-21T05:38:31;6.93;;;4.82;;
7737;SDS011;29398;45.328;5.558;2024-02-21T05:39:32;6.05;;;5.03;;
7737;SDS011;29398;45.328;5.558;2024-02-21T05:40:34;8.10;;;4.90;;
7737;SDS011;29398;45.328;5.558;2024-02-21T05:41:35;6.97;;;4.50;;
7737;SDS011;29398;45.328;5.558;2024-02-21T05:42:37;7.68;;;5.20;;
7737;SDS011;29398;45.328;5.558;2024-02-21T05:43:38;7.13;;;4.85;;
7737;SDS011;29398;45.328;5.558;2024-02-21T05:44:41;7.00;;;4.40;;
7737;SDS011;29398;45.328;5.558;2024-02-21T05:45:42;9.48;;;5.25;;
7737;SDS011;29398;45.328;5.558;2024-02-21T05:46:44;10.05;;;5.47;;
7737;SDS011;29398;45.328;5.558;2024-02-21T05:47:46;6.68;;;4.55;;
7737;SDS011;29398;45.328;5.558;2024-02-21T05:48:48;8.43;;;5.68;;
7737;SDS011;29398;45.328;5.558;2024-02-21T05:49:49;8.77;;;6.20;;
7737;SDS011;29398;45.328;5.558;2024-02-21T05:50:53;8.63;;;5.82;;
7737;SDS011;29398;45.328;5.558;2024-02-21T05:51:54;9.95;;;5.82;;
7737;SDS011;29398;45.328;5.558;2024-02-21T05:52:56;9.68;;;6.15;;
7737;SDS011;29398;45.328;5.558;2024-02-21T05:53:58;10.23;;;6.30;;
7737;SDS011;29398;45.328;5.558;2024-02-21T05:54:59;10.52;;;6.53;;
7737;SDS011;29398;45.328;5.558;2024-02-21T05:56:01;11.55;;;7.32;;
7737;SDS011;29398;45.328;5.558;2024-02-21T05:57:02;10.10;;;6.43;;
7737;SDS011;29398;45.328;5.558;2024-02-21T05:58:03;10.57;;;6.72;;
7737;SDS011;29398;45.328;5.558;2024-02-21T05:59:06;12.70;;;7.60;;
7737;SDS011;29398;45.328;5.558;2024-02-21T06:00:09;13.02;;;6.82;;
7737;SDS011;29398;45.328;5.558;2024-02-21T06:01:14;9.82;;;6.95;;
7737;SDS011;29398;45.328;5.558;2024-02-21T06:02:16;10.50;;;6.80;;
7737;SDS011;29398;45.328;5.558;2024-02-21T06:03:18;10.10;;;7.80;;
7737;SDS011;29398;45.328;5.558;2024-02-21T06:04:19;9.23;;;8.05;;
7737;SDS011;29398;45.328;5.558;2024-02-21T06:05:21;11.93;;;8.25;;
7737;SDS011;29398;45.328;5.558;2024-02-21T06:06:22;13.82;;;8.05;;
7737;SDS011;29398;45.328;5.558;2024-02-21T06:07:24;11.48;;;6.78;;
7737;SDS011;29398;45.328;5.558;2024-02-21T06:08:25;12.18;;;7.50;;
7737;SDS011;29398;45.328;5.558;2024-02-21T06:09:27;12.35;;;7.07;;
7737;SDS011;29398;45.328;5.558;2024-02-21T06:10:29;10.82;;;7.55;;
7737;SDS011;29398;45.328;5.558;2024-02-21T06:11:31;13.88;;;7.30;;
7737;SDS011;29398;45.328;5.558;2024-02-21T06:12:32;13.13;;;7.22;;
7737;SDS011;29398;45.328;5.558;2024-02-21T06:13:37;8.77;;;6.95;;
7737;SDS011;29398;45.328;5.558;2024-02-21T06:14:38;11.95;;;7.90;;
7737;SDS011;29398;45.328;5.558;2024-02-21T06:15:42;11.75;;;7.40;;